Proctor, Minnesota
Current Conditions -  °F | °C
As of 5:55 PM on Friday 24 Oct 2014 (Local Time) from KDLH Reporting Station
Few Clouds Few Clouds  
Wind Chill: 64°   Ceiling: Unl
Heat Index: 64°   Visibility: 10mi
Dew Point: 50°   Wind: 12mph
Humidity: 60%   Direction: 220°SW
Pressure: 29.75"   Gusts: NA
Location:  46.7582°N, 92.2733°W
Report Text: KDLH 242255Z 22010KT 10SM FEW120 18/10 A2975 RMK AO2 SLP080 T01780100
Loading
Personal Weather Stations






























Interactive Weather Map
Tropical Storm Tracking
New forecast layout! Learn more

10-Day Weather Forecast

Advertisements
Track Severe Weather on mobile